Time;durP1;ratioP1;P1;durP2;ratioP2;P2;SDS_P1;SDS_P2;PMS_P1;PMS_P2;Temp;Humidity;BMP_temperature;BMP_pressure;BME280_temperature;BME280_humidity;BME280_pressure;Samples;Min_cycle;Max_cycle;Signal;HPM_P1;HPM_P2
2021/11/01 00:00:08;;;;;;;;;;;;;;;20.05;41.69;94500.03;1049416;28;1057;-53
2021/11/01 00:00:39;;;;;;;;;;;;;;;20.07;41.69;94508.41;1048627;28;820;-57
2021/11/01 00:01:09;;;;;;;;;;;;;;;20.04;41.66;94501.09;1047229;28;1173;-57
2021/11/01 00:01:40;;;;;;;;;;;;;;;20.03;41.83;94502.19;1048559;28;1122;-57
2021/11/01 00:02:10;;;;;;;;;;;;;;;20.01;41.73;94497.19;1044755;28;1343;-57
2021/11/01 00:02:41;;;;;;;;;;;;;;;20.01;41.92;94504.34;1048906;28;1910;-58
2021/11/01 00:03:11;;;;;;;;;;;;;;;19.99;41.86;94501.97;1046860;28;1934;-58
2021/11/01 00:03:42;;;;;;;;;;;;;;;19.99;41.83;94495.97;1049084;28;1036;-58
2021/11/01 00:04:12;;;;;;;;;;;;;;;19.96;41.93;94505.22;1048995;28;1206;-57
2021/11/01 00:04:44;;;;;;;;;;;;;;;19.96;41.75;94502.59;1048220;28;1142;-58
2021/11/01 00:05:14;;;;;;;;;;;;;;;19.95;41.94;94505.50;1050262;28;1622;-57
2021/11/01 00:05:52;;;;;;;;;;;;;;;19.98;41.96;94499.66;1052624;28;1000;-57
2021/11/01 00:06:22;;;;;;;;;;;;;;;19.96;42.01;94507.84;1050929;28;1146;-56
2021/11/01 00:06:54;;;;;;;;;;;;;;;19.98;41.93;94508.31;1049492;28;1081;-57
2021/11/01 00:07:24;;;;;;;;;;;;;;;19.95;41.87;94501.03;1048717;28;1099;-55
2021/11/01 00:07:55;;;;;;;;;;;;;;;19.95;42.04;94498.41;1048525;28;1152;-58
2021/11/01 00:08:26;;;;;;;;;;;;;;;19.93;42.03;94508.44;1047597;28;1472;-58
2021/11/01 00:09:07;;;;;;;;;;;;;;;19.96;42.02;94499.97;1048535;28;1152;-57
2021/11/01 00:09:58;;;;;;;;;;;;;;;19.96;42.00;94505.22;1047695;28;999;-57
2021/11/01 00:10:48;;;;;;;;;;;;;;;19.95;42.05;94495.75;1048485;28;864;-55
2021/11/01 00:11:38;;;;;;;;;;;;;;;19.99;42.00;94501.22;1048475;28;1039;-59
2021/11/01 00:12:30;;;;;;;;;;;;;;;19.97;41.82;94503.38;1046960;28;2073;-58
2021/11/01 00:13:02;;;;;;;;;;;;;;;19.95;41.99;94503.66;1047671;28;1887;-57
2021/11/01 00:13:33;;;;;;;;;;;;;;;19.95;41.88;94501.03;1048195;28;965;-54
2021/11/01 00:14:03;;;;;;;;;;;;;;;19.97;41.83;94503.38;1048037;28;1604;-56
2021/11/01 00:14:34;;;;;;;;;;;;;;;19.96;41.87;94504.44;1048099;28;1153;-57
2021/11/01 00:15:05;;;;;;;;;;;;;;;19.95;41.99;94498.41;1048818;28;1233;-57
2021/11/01 00:15:36;;;;;;;;;;;;;;;19.94;42.10;94503.97;1044224;28;961;-57
2021/11/01 00:16:07;;;;;;;;;;;;;;;19.95;41.81;94508.13;1046790;28;998;-58
2021/11/01 00:16:37;;;;;;;;;;;;;;;19.94;42.14;94501.31;1048534;28;1212;-58
2021/11/01 00:17:09;;;;;;;;;;;;;;;19.93;42.06;94502.38;1048451;28;1061;-56
2021/11/01 00:17:59;;;;;;;;;;;;;;;19.91;42.31;94499.28;1046265;28;2004;-57
2021/11/01 00:18:49;;;;;;;;;;;;;;;19.94;42.02;94502.13;1048363;28;1032;-56
2021/11/01 00:19:39;;;;;;;;;;;;;;;19.97;41.98;94503.38;1044536;28;1907;-58
2021/11/01 00:20:09;;;;;;;;;;;;;;;19.94;42.09;94504.75;1048612;28;1263;-57
2021/11/01 00:20:41;;;;;;;;;;;;;;;19.97;41.91;94506.75;1048826;28;1075;-57
2021/11/01 00:21:11;;;;;;;;;;;;;;;19.94;42.02;94498.69;1048042;28;1348;-57
2021/11/01 00:21:41;;;;;;;;;;;;;;;19.94;42.00;94503.97;1048384;28;1040;-57
2021/11/01 00:22:12;;;;;;;;;;;;;;;19.94;42.09;94493.44;1048018;28;1312;-57
2021/11/01 00:22:42;;;;;;;;;;;;;;;19.93;42.10;94497.13;1048307;28;1945;-57
2021/11/01 00:23:13;;;;;;;;;;;;;;;19.92;41.95;94500.84;1048938;28;1232;-55
2021/11/01 00:23:44;;;;;;;;;;;;;;;19.91;42.12;94488.75;1049023;28;1017;-57
2021/11/01 00:24:14;;;;;;;;;;;;;;;19.91;42.00;94488.75;1047230;28;1871;-57
2021/11/01 00:24:45;;;;;;;;;;;;;;;19.93;42.10;94491.88;1048112;28;1116;-56
2021/11/01 00:25:15;;;;;;;;;;;;;;;19.91;42.20;94494.03;1048616;28;1119;-57
2021/11/01 00:25:45;;;;;;;;;;;;;;;19.89;41.99;94489.06;1048383;28;1170;-58
2021/11/01 00:26:16;;;;;;;;;;;;;;;19.88;42.20;94484.91;1048529;28;1103;-57
2021/11/01 00:26:46;;;;;;;;;;;;;;;19.90;42.19;94492.47;1047663;28;1584;-57
2021/11/01 00:27:17;;;;;;;;;;;;;;;19.87;42.02;94485.97;1046060;28;1056;-57
2021/11/01 00:28:10;;;;;;;;;;;;;;;19.88;42.10;94490.16;1047736;28;1069;-56
2021/11/01 00:29:03;;;;;;;;;;;;;;;19.88;42.18;94487.53;1048410;28;1326;-55
2021/11/01 00:29:53;;;;;;;;;;;;;;;19.88;42.21;94486.75;1048337;28;1130;-58
2021/11/01 00:30:44;;;;;;;;;;;;;;;19.89;41.91;94486.44;1047992;28;1074;-57
2021/11/01 00:31:34;;;;;;;;;;;;;;;19.89;42.17;94483.81;1048158;28;1061;-57
2021/11/01 00:32:10;;;;;;;;;;;;;;;19.88;42.16;94474.38;1046036;28;1580;-57
2021/11/01 00:32:42;;;;;;;;;;;;;;;19.89;42.27;94481.19;1048426;28;1193;-55
2021/11/01 00:33:12;;;;;;;;;;;;;;;19.89;41.94;94480.41;1048560;28;1154;-54
2021/11/01 00:33:42;;;;;;;;;;;;;;;19.89;42.03;94480.41;1048652;28;1075;-56
2021/11/01 00:34:13;;;;;;;;;;;;;;;19.88;42.11;94484.13;1045249;28;2028;-56
2021/11/01 00:34:43;;;;;;;;;;;;;;;19.87;42.06;94478.06;1044847;28;1017;-57
2021/11/01 00:35:14;;;;;;;;;;;;;;;19.88;42.18;94478.84;1047312;28;1587;-56
2021/11/01 00:35:45;;;;;;;;;;;;;;;19.87;42.27;94479.91;1047828;28;1772;-54
2021/11/01 00:36:15;;;;;;;;;;;;;;;19.87;42.21;94477.28;1048286;28;1141;-57
2021/11/01 00:36:45;;;;;;;;;;;;;;;19.85;42.17;94474.97;1044204;28;1119;-57
2021/11/01 00:37:16;;;;;;;;;;;;;;;19.86;42.18;94476.53;1044465;28;1217;-53
2021/11/01 00:37:47;;;;;;;;;;;;;;;19.87;42.24;94474.66;1048655;28;1200;-55
2021/11/01 00:38:18;;;;;;;;;;;;;;;19.87;42.02;94475.44;1048530;28;1118;-55
2021/11/01 00:38:48;;;;;;;;;;;;;;;19.86;42.20;94476.53;1048649;28;1134;-56
2021/11/01 00:39:20;;;;;;;;;;;;;;;19.88;42.13;94473.59;1046537;28;2110;-56
2021/11/01 00:39:51;;;;;;;;;;;;;;;19.88;41.98;94478.84;1045747;28;1490;-57
2021/11/01 00:40:21;;;;;;;;;;;;;;;19.86;42.28;94478.38;1044407;28;1415;-57
2021/11/01 00:40:51;;;;;;;;;;;;;;;19.87;42.17;94478.06;1042972;28;2416;-56
2021/11/01 00:41:22;;;;;;;;;;;;;;;19.86;42.30;94470.50;1042423;28;1143;-55
2021/11/01 00:41:52;;;;;;;;;;;;;;;19.87;42.13;94469.41;1048230;28;1392;-54
2021/11/01 00:42:23;;;;;;;;;;;;;;;19.86;42.04;94473.13;1048315;28;1228;-57
2021/11/01 00:42:53;;;;;;;;;;;;;;;19.84;42.25;94473.44;1047809;28;1882;-57
2021/11/01 00:43:25;;;;;;;;;;;;;;;19.85;42.23;94472.34;1048679;28;1035;-58
2021/11/01 00:43:57;;;;;;;;;;;;;;;19.85;42.14;94469.72;1048810;28;1324;-58
2021/11/01 00:44:28;;;;;;;;;;;;;;;19.85;42.29;94471.56;1044861;28;1812;-57
2021/11/01 00:44:59;;;;;;;;;;;;;;;19.84;42.11;94464.75;1045926;28;1398;-56
2021/11/01 00:45:30;;;;;;;;;;;;;;;19.84;42.24;94467.38;1048283;28;1078;-54
2021/11/01 00:46:01;;;;;;;;;;;;;;;19.86;42.26;94465.22;1047221;28;945;-57
2021/11/01 00:46:36;;;;;;;;;;;;;;;19.85;42.11;94464.44;1044844;28;502;-58
2021/11/01 00:47:07;;;;;;;;;;;;;;;19.85;42.15;94461.81;1048118;28;1077;-58
2021/11/01 00:47:37;;;;;;;;;;;;;;;19.86;42.22;94468.66;1048880;28;1173;-57
2021/11/01 00:48:08;;;;;;;;;;;;;;;19.86;42.15;94468.66;1049021;28;1119;-56
2021/11/01 00:48:38;;;;;;;;;;;;;;;19.86;42.03;94466.00;1048829;28;1029;-55
2021/11/01 00:49:08;;;;;;;;;;;;;;;19.86;41.89;94462.59;1048069;28;1879;-59
2021/11/01 00:49:39;;;;;;;;;;;;;;;19.85;42.08;94461.81;1045560;28;1627;-58
2021/11/01 00:50:09;;;;;;;;;;;;;;;19.85;42.11;94463.66;1048439;28;1535;-57
2021/11/01 00:50:40;;;;;;;;;;;;;;;19.84;42.04;94472.66;1048861;28;898;-58
2021/11/01 00:51:11;;;;;;;;;;;;;;;19.84;42.34;94467.38;1048260;28;1126;-54
2021/11/01 00:51:43;;;;;;;;;;;;;;;19.83;42.23;94468.44;1048648;28;1166;-57
2021/11/01 00:52:13;;;;;;;;;;;;;;;19.83;42.23;94471.06;1048553;28;1290;-56
2021/11/01 00:52:44;;;;;;;;;;;;;;;19.82;42.10;94469.53;1048720;28;1142;-56
2021/11/01 00:53:14;;;;;;;;;;;;;;;19.82;42.28;94466.91;1048530;28;1149;-57
2021/11/01 00:53:48;;;;;;;;;;;;;;;19.81;42.26;94466.13;1047800;28;1651;-55
2021/11/01 00:54:18;;;;;;;;;;;;;;;19.81;42.30;94467.97;1046654;28;2016;-56
2021/11/01 00:54:49;;;;;;;;;;;;;;;19.83;42.39;94471.06;1045533;28;1054;-55
2021/11/01 00:55:25;;;;;;;;;;;;;;;19.82;42.32;94465.06;1052226;28;1126;-57
2021/11/01 00:55:56;;;;;;;;;;;;;;;19.82;42.31;94467.69;1051272;28;1024;-57
2021/11/01 00:56:27;;;;;;;;;;;;;;;19.81;42.33;94463.50;1051139;28;1217;-57
2021/11/01 00:56:57;;;;;;;;;;;;;;;19.81;42.31;94462.72;1047680;28;1575;-56
2021/11/01 00:57:27;;;;;;;;;;;;;;;19.81;42.31;94468.75;1047315;28;1155;-55
2021/11/01 00:57:58;;;;;;;;;;;;;;;19.81;42.24;94468.75;1048787;28;1091;-54
2021/11/01 00:58:29;;;;;;;;;;;;;;;19.79;42.37;94459.59;1048574;28;1118;-55
2021/11/01 00:58:59;;;;;;;;;;;;;;;19.82;42.33;94464.28;1048928;28;1072;-55
2021/11/01 00:59:29;;;;;;;;;;;;;;;19.81;42.28;94465.34;1045381;28;1849;-57
2021/11/01 00:59:59;;;;;;;;;;;;;;;19.81;42.14;94465.34;1047555;28;1040;-57
2021/11/01 01:00:30;;;;;;;;;;;;;;;19.80;42.17;94459.31;1048788;28;1106;-57
2021/11/01 01:01:01;;;;;;;;;;;;;;;19.78;42.38;94458.84;1047509;28;1001;-56
2021/11/01 01:01:32;;;;;;;;;;;;;;;19.78;42.44;94458.84;1048498;28;1173;-55
2021/11/01 01:02:02;;;;;;;;;;;;;;;19.78;42.21;94458.06;1048563;28;1351;-53
2021/11/01 01:02:33;;;;;;;;;;;;;;;19.81;42.26;94457.44;1048525;28;1181;-56
2021/11/01 01:03:03;;;;;;;;;;;;;;;19.80;42.17;94455.91;1048617;28;1918;-54
2021/11/01 01:03:34;;;;;;;;;;;;;;;19.81;42.37;94460.09;1048513;28;1150;-56
2021/11/01 01:04:04;;;;;;;;;;;;;;;19.81;42.13;94454.81;1048830;28;1048;-54
2021/11/01 01:04:35;;;;;;;;;;;;;;;19.81;42.17;94460.09;1044398;28;1926;-55
2021/11/01 01:05:05;;;;;;;;;;;;;;;19.79;42.32;94454.34;1048418;28;915;-55
2021/11/01 01:05:36;;;;;;;;;;;;;;;19.80;42.24;94458.53;1048355;28;1146;-57
2021/11/01 01:06:06;;;;;;;;;;;;;;;19.81;42.30;94457.44;1048484;28;1076;-57
2021/11/01 01:06:36;;;;;;;;;;;;;;;19.81;42.22;94457.44;1048757;28;1197;-56
2021/11/01 01:07:07;;;;;;;;;;;;;;;19.80;42.36;94461.97;1051981;28;1029;-54
2021/11/01 01:07:37;;;;;;;;;;;;;;;19.81;42.36;94458.22;1051565;28;1134;-56
2021/11/01 01:08:07;;;;;;;;;;;;;;;19.79;42.33;94456.97;1048064;28;1714;-58
2021/11/01 01:08:38;;;;;;;;;;;;;;;19.78;42.33;94455.44;1044887;28;1953;-57
2021/11/01 01:09:08;;;;;;;;;;;;;;;19.77;42.40;94451.25;1048531;28;1183;-56
2021/11/01 01:09:39;;;;;;;;;;;;;;;19.78;42.32;94453.59;1048279;28;1249;-54
2021/11/01 01:10:09;;;;;;;;;;;;;;;19.78;42.24;94456.22;1047076;28;1898;-55
2021/11/01 01:10:40;;;;;;;;;;;;;;;19.78;42.27;94453.59;1048257;28;1016;-57
2021/11/01 01:11:11;;;;;;;;;;;;;;;19.80;42.33;94459.31;1048076;28;1043;-57
2021/11/01 01:11:41;;;;;;;;;;;;;;;19.79;42.03;94459.59;1048547;28;1056;-57
2021/11/01 01:12:12;;;;;;;;;;;;;;;19.79;42.27;94464.88;1048175;28;1157;-57
2021/11/01 01:12:43;;;;;;;;;;;;;;;19.78;42.30;94458.06;1048816;28;1222;-57
2021/11/01 01:13:14;;;;;;;;;;;;;;;19.77;42.31;94454.66;1047458;28;2020;-55
2021/11/01 01:13:44;;;;;;;;;;;;;;;19.77;42.21;94459.91;1044931;28;1455;-54
2021/11/01 01:14:14;;;;;;;;;;;;;;;19.77;42.29;94456.50;1048029;28;1122;-57
2021/11/01 01:14:51;;;;;;;;;;;;;;;19.76;42.40;94455.75;1048005;28;1118;-57
2021/11/01 01:15:24;;;;;;;;;;;;;;;19.76;42.33;94461.00;1046320;28;1123;-57
2021/11/01 01:16:06;;;;;;;;;;;;;;;19.75;42.34;94456.00;1044095;28;1053;-57
2021/11/01 01:16:43;;;;;;;;;;;;;;;19.75;42.14;94451.53;1047428;28;1381;-55
2021/11/01 01:17:13;;;;;;;;;;;;;;;19.74;42.29;94451.84;1048451;28;1122;-56
2021/11/01 01:17:45;;;;;;;;;;;;;;;19.75;42.27;94451.53;1048618;28;1209;-56
2021/11/01 01:18:19;;;;;;;;;;;;;;;19.75;42.12;94459.44;1046968;28;1922;-57
2021/11/01 01:18:52;;;;;;;;;;;;;;;19.75;42.24;94453.38;1046013;28;1037;-56
2021/11/01 01:19:26;;;;;;;;;;;;;;;19.76;42.33;94449.69;1048841;28;1131;-56
2021/11/01 01:20:10;;;;;;;;;;;;;;;19.75;42.51;94456.00;1048132;28;1099;-56
2021/11/01 01:20:42;;;;;;;;;;;;;;;19.74;42.44;94451.84;1048348;28;977;-53
2021/11/01 01:22:28;;;;;;;;;;;;;;;19.75;42.35;94453.38;1051009;28;1287;-57
2021/11/01 01:22:58;;;;;;;;;;;;;;;19.75;42.41;94448.13;1049131;28;1913;-55
2021/11/01 01:23:29;;;;;;;;;;;;;;;19.74;42.30;94449.97;1045578;28;1918;-58
2021/11/01 01:24:02;;;;;;;;;;;;;;;19.76;42.33;94449.69;1047238;28;993;-57
2021/11/01 01:24:32;;;;;;;;;;;;;;;19.77;42.28;94456.50;1047587;28;1068;-54
2021/11/01 01:25:05;;;;;;;;;;;;;;;19.77;42.21;94451.25;1048668;28;1068;-57
2021/11/01 01:25:41;;;;;;;;;;;;;;;19.76;42.33;94449.69;1046567;28;1458;-58
2021/11/01 01:26:14;;;;;;;;;;;;;;;19.74;42.47;94455.22;1044185;28;1869;-57
2021/11/01 01:26:44;;;;;;;;;;;;;;;19.75;42.27;94456.81;1045774;28;1713;-58
2021/11/01 01:27:14;;;;;;;;;;;;;;;19.74;42.19;94457.09;1048352;28;1131;-57
2021/11/01 01:27:45;;;;;;;;;;;;;;;19.73;42.42;94456.31;1048454;28;1162;-58
2021/11/01 01:28:15;;;;;;;;;;;;;;;19.74;42.47;94459.75;1048645;28;1182;-55
2021/11/01 01:28:46;;;;;;;;;;;;;;;19.75;42.25;94456.00;1046851;28;2004;-57
2021/11/01 01:29:16;;;;;;;;;;;;;;;19.75;42.34;94463.91;1048109;28;996;-57
2021/11/01 01:29:47;;;;;;;;;;;;;;;19.74;42.28;94454.47;1048464;28;1013;-57
2021/11/01 01:30:17;;;;;;;;;;;;;;;19.76;42.34;94460.22;1048043;28;1209;-53
2021/11/01 01:30:48;;;;;;;;;;;;;;;19.77;42.29;94461.75;1048284;28;1217;-57
2021/11/01 01:31:19;;;;;;;;;;;;;;;19.77;42.31;94461.75;1048210;28;1233;-56
2021/11/01 01:31:49;;;;;;;;;;;;;;;19.76;42.33;94460.22;1048619;28;1292;-52
2021/11/01 01:32:20;;;;;;;;;;;;;;;19.76;42.39;94452.31;1048165;28;1194;-56
2021/11/01 01:32:50;;;;;;;;;;;;;;;19.73;42.29;94451.06;1048935;28;1068;-56
2021/11/01 01:33:21;;;;;;;;;;;;;;;19.76;42.31;94457.59;1048734;28;1130;-57
2021/11/01 01:33:51;;;;;;;;;;;;;;;19.75;42.32;94456.00;1047575;28;2039;-57
2021/11/01 01:34:23;;;;;;;;;;;;;;;19.77;42.38;94454.66;1045970;28;957;-52
2021/11/01 01:34:53;;;;;;;;;;;;;;;19.76;42.19;94457.59;1044543;28;1847;-57
2021/11/01 01:35:23;;;;;;;;;;;;;;;19.75;42.40;94453.38;1046021;28;1534;-54
2021/11/01 01:35:56;;;;;;;;;;;;;;;19.74;42.34;94452.59;1046214;28;1006;-56
2021/11/01 01:36:26;;;;;;;;;;;;;;;19.74;42.33;94451.84;1046644;28;2263;-58
2021/11/01 01:36:57;;;;;;;;;;;;;;;19.76;42.24;94454.97;1047989;28;1647;-56
2021/11/01 01:37:27;;;;;;;;;;;;;;;19.74;42.36;94449.22;1048330;28;1169;-56
2021/11/01 01:37:58;;;;;;;;;;;;;;;19.72;42.29;94446.88;1048490;28;976;-56
2021/11/01 01:38:28;;;;;;;;;;;;;;;19.74;42.37;94441.34;1048140;28;1158;-55
2021/11/01 01:38:58;;;;;;;;;;;;;;;19.77;42.27;94443.34;1048777;28;1197;-56
2021/11/01 01:39:29;;;;;;;;;;;;;;;19.73;42.44;94439.75;1048339;28;1863;-58
2021/11/01 01:39:59;;;;;;;;;;;;;;;19.74;42.50;94441.34;1047270;28;1591;-55
2021/11/01 01:40:29;;;;;;;;;;;;;;;19.75;42.44;94437.63;1047954;28;1447;-55
2021/11/01 01:41:29;;;;;;;;;;;;;;;19.75;42.32;94437.63;1047829;28;1688;-58
2021/11/01 01:42:00;;;;;;;;;;;;;;;19.73;42.41;94445.81;1036266;28;1645;-57
2021/11/01 01:42:30;;;;;;;;;;;;;;;19.73;42.37;94445.81;1048418;28;1003;-57
2021/11/01 01:43:03;;;;;;;;;;;;;;;19.72;42.38;94440.84;1049387;28;1914;-56
2021/11/01 01:43:33;;;;;;;;;;;;;;;19.73;42.46;94450.28;1049375;28;1218;-56
2021/11/01 01:44:04;;;;;;;;;;;;;;;19.73;42.30;94442.41;1049447;28;1190;-54
2021/11/01 01:44:37;;;;;;;;;;;;;;;19.71;42.41;94441.91;1047556;28;1887;-55
2021/11/01 01:45:08;;;;;;;;;;;;;;;19.72;42.34;94443.47;1048910;28;1069;-55
2021/11/01 01:45:38;;;;;;;;;;;;;;;19.72;42.23;94446.88;1049199;28;851;-54
2021/11/01 01:46:09;;;;;;;;;;;;;;;19.71;42.44;94444.53;1047853;28;1064;-58
2021/11/01 01:46:39;;;;;;;;;;;;;;;19.73;42.31;94445.03;1044944;28;1023;-57
2021/11/01 01:47:10;;;;;;;;;;;;;;;19.73;42.38;94445.03;1048797;28;1198;-57
2021/11/01 01:47:41;;;;;;;;;;;;;;;19.72;42.24;94446.13;1048137;28;1748;-55
2021/11/01 01:48:13;;;;;;;;;;;;;;;19.72;42.38;94446.88;1049414;28;1157;-58
2021/11/01 01:48:43;;;;;;;;;;;;;;;19.74;42.25;94449.22;1049108;28;1185;-53
2021/11/01 01:49:14;;;;;;;;;;;;;;;19.72;42.48;94443.47;1049413;28;1228;-56
2021/11/01 01:49:44;;;;;;;;;;;;;;;19.72;42.29;94444.25;1047853;28;1934;-57
2021/11/01 01:50:15;;;;;;;;;;;;;;;19.73;42.30;94445.03;1047672;28;1441;-55
2021/11/01 01:50:46;;;;;;;;;;;;;;;19.71;42.56;94444.53;1048136;28;1437;-56
2021/11/01 01:51:16;;;;;;;;;;;;;;;19.71;42.38;94447.97;1048294;28;1118;-58
2021/11/01 01:51:46;;;;;;;;;;;;;;;19.72;42.27;94449.50;1045649;28;2179;-57
2021/11/01 01:52:18;;;;;;;;;;;;;;;19.71;42.45;94452.44;1048655;28;1300;-57
2021/11/01 01:52:53;;;;;;;;;;;;;;;19.72;42.41;94448.75;1044925;28;1084;-56
2021/11/01 01:53:23;;;;;;;;;;;;;;;19.70;42.43;94446.38;1049025;28;1126;-55
2021/11/01 01:53:54;;;;;;;;;;;;;;;19.70;42.28;94445.63;1049044;28;1111;-57
2021/11/01 01:54:24;;;;;;;;;;;;;;;19.69;42.30;94444.06;1048554;28;1154;-57
2021/11/01 01:54:54;;;;;;;;;;;;;;;19.71;42.38;94452.44;1047830;28;1909;-57
2021/11/01 01:55:26;;;;;;;;;;;;;;;19.70;42.50;94445.63;1049369;28;1174;-55
2021/11/01 01:55:56;;;;;;;;;;;;;;;19.70;42.39;94445.63;1045417;28;1777;-55
2021/11/01 01:56:27;;;;;;;;;;;;;;;19.69;42.29;94455.38;1047967;28;1135;-57
2021/11/01 01:56:57;;;;;;;;;;;;;;;19.70;42.21;94445.63;1049102;28;1092;-54
2021/11/01 01:57:28;;;;;;;;;;;;;;;19.70;42.32;94450.91;1049384;28;1205;-57
2021/11/01 01:57:58;;;;;;;;;;;;;;;19.72;42.44;94446.13;1047698;28;2095;-56
2021/11/01 01:58:31;;;;;;;;;;;;;;;19.70;42.44;94443.00;1049018;28;1182;-54
2021/11/01 01:59:03;;;;;;;;;;;;;;;19.69;42.44;94449.31;1048805;28;1410;-55
2021/11/01 01:59:34;;;;;;;;;;;;;;;19.68;42.16;94439.91;1048356;28;1954;-58
2021/11/01 02:00:06;;;;;;;;;;;;;;;19.69;42.44;94451.97;1048809;28;1639;-56
2021/11/01 02:01:39;;;;;;;;;;;;;;;19.70;42.38;94448.25;1040984;28;2059;-55
2021/11/01 02:02:09;;;;;;;;;;;;;;;19.67;42.51;94444.38;1041098;28;1283;-57
2021/11/01 02:02:40;;;;;;;;;;;;;;;19.68;42.43;94439.91;1049072;28;1129;-57
2021/11/01 02:03:10;;;;;;;;;;;;;;;19.68;42.43;94435.41;1051171;28;1906;-57
2021/11/01 02:03:43;;;;;;;;;;;;;;;19.68;42.44;94438.03;1049336;28;1809;-58
2021/11/01 02:04:15;;;;;;;;;;;;;;;19.67;42.37;94441.75;1048796;28;1115;-55
2021/11/01 02:04:45;;;;;;;;;;;;;;;19.67;42.33;94440.97;1043451;28;1939;-57
2021/11/01 02:05:16;;;;;;;;;;;;;;;19.67;42.47;94439.13;1040628;28;1206;-56
2021/11/01 02:05:50;;;;;;;;;;;;;;;19.68;42.37;94432.00;1040808;28;935;-54
2021/11/01 02:06:47;;;;;;;;;;;;;;;19.68;42.52;94434.66;1042422;28;1117;-57
2021/11/01 02:07:43;;;;;;;;;;;;;;;19.69;42.21;94436.19;1046499;28;1084;-57
2021/11/01 02:08:42;;;;;;;;;;;;;;;19.67;42.41;94436.50;1046562;28;1171;-58
2021/11/01 02:09:36;;;;;;;;;;;;;;;19.66;42.51;94434.91;1046225;28;1363;-55
2021/11/01 02:10:29;;;;;;;;;;;;;;;19.67;42.53;94430.44;1047840;28;1050;-56
2021/11/01 02:11:22;;;;;;;;;;;;;;;19.68;42.38;94429.38;1046661;28;1653;-56
2021/11/01 02:12:21;;;;;;;;;;;;;;;19.68;42.43;94424.88;1045710;28;1960;-55
2021/11/01 02:13:15;;;;;;;;;;;;;;;19.70;42.36;94427.22;1047825;28;1147;-56
2021/11/01 02:14:07;;;;;;;;;;;;;;;19.67;42.30;94423.34;1048186;28;1201;-56
2021/11/01 02:15:00;;;;;;;;;;;;;;;19.65;42.54;94422.88;1044564;28;1930;-57
2021/11/01 02:15:54;;;;;;;;;;;;;;;19.66;42.52;94431.53;1045375;28;1094;-57
2021/11/01 02:16:28;;;;;;;;;;;;;;;19.68;42.45;94424.13;1050090;28;1122;-57
2021/11/01 02:17:00;;;;;;;;;;;;;;;19.68;42.26;94424.88;1050158;28;1965;-55
2021/11/01 02:17:52;;;;;;;;;;;;;;;19.68;42.32;94432.00;1050289;28;1059;-57
2021/11/01 02:18:43;;;;;;;;;;;;;;;19.66;42.54;94426.28;1050485;28;991;-55
2021/11/01 02:19:37;;;;;;;;;;;;;;;19.66;42.47;94434.91;1049293;28;1209;-54
2021/11/01 02:20:33;;;;;;;;;;;;;;;19.65;42.35;94429.97;1047600;28;1195;-55
2021/11/01 02:21:42;;;;;;;;;;;;;;;19.64;42.47;94429.19;1047015;28;1222;-58
2021/11/01 02:22:23;;;;;;;;;;;;;;;19.64;42.54;94431.06;1045408;28;1217;-55
2021/11/01 02:23:06;;;;;;;;;;;;;;;19.66;42.27;94434.16;1043969;28;1959;-57
2021/11/01 02:24:26;;;;;;;;;;;;;;;19.64;42.41;94434.44;1044561;28;1433;-52
2021/11/01 02:25:11;;;;;;;;;;;;;;;19.65;42.40;94428.13;1039503;28;1829;-56
2021/11/01 02:25:53;;;;;;;;;;;;;;;19.64;42.48;94433.69;1035629;28;1526;-54
2021/11/01 02:26:43;;;;;;;;;;;;;;;19.64;42.34;94423.19;1033991;28;1129;-55
2021/11/01 02:27:36;;;;;;;;;;;;;;;19.64;42.51;94425.81;1038152;28;1291;-57
2021/11/01 02:28:08;;;;;;;;;;;;;;;19.62;42.42;94428.72;1046088;28;1081;-55
2021/11/01 02:28:59;;;;;;;;;;;;;;;19.63;42.50;94424.22;1044689;28;1148;-56
2021/11/01 02:29:49;;;;;;;;;;;;;;;19.62;42.52;94427.94;1038117;28;2010;-54
2021/11/01 02:30:20;;;;;;;;;;;;;;;19.63;42.44;94424.22;1039791;28;1123;-57
2021/11/01 02:30:50;;;;;;;;;;;;;;;19.62;42.37;94420.81;1042005;28;1161;-55
2021/11/01 02:31:40;;;;;;;;;;;;;;;19.63;42.50;94421.59;1044692;28;1152;-57
2021/11/01 02:32:31;;;;;;;;;;;;;;;19.64;42.43;94425.81;1048345;28;1162;-54
2021/11/01 02:33:14;;;;;;;;;;;;;;;19.63;42.46;94418.97;1044704;28;1460;-55
2021/11/01 02:34:04;;;;;;;;;;;;;;;19.63;42.34;94422.38;1047543;28;1174;-57
2021/11/01 02:34:55;;;;;;;;;;;;;;;19.61;42.41;94414.03;1041411;28;1853;-57
2021/11/01 02:35:26;;;;;;;;;;;;;;;19.61;42.53;94421.13;1046115;28;1353;-54
2021/11/01 02:35:59;;;;;;;;;;;;;;;19.62;42.37;94420.06;1042866;28;1185;-56
2021/11/01 02:36:39;;;;;;;;;;;;;;;19.63;42.49;94418.97;1037981;28;1237;-52
2021/11/01 02:37:22;;;;;;;;;;;;;;;19.62;42.43;94417.44;1040244;28;1249;-57
2021/11/01 02:38:13;;;;;;;;;;;;;;;19.62;42.37;94425.31;1039021;28;1249;-56
2021/11/01 02:39:03;;;;;;;;;;;;;;;19.62;42.26;94422.69;1039892;28;1916;-54
2021/11/01 02:39:55;;;;;;;;;;;;;;;19.63;42.48;94424.22;1045847;28;1820;-54
2021/11/01 02:40:45;;;;;;;;;;;;;;;19.62;42.56;94422.69;1045584;28;981;-56
2021/11/01 02:41:35;;;;;;;;;;;;;;;19.62;42.49;94420.06;1048945;28;1101;-57
2021/11/01 02:42:07;;;;;;;;;;;;;;;19.62;42.41;94426.06;1048964;28;1323;-58
2021/11/01 02:42:38;;;;;;;;;;;;;;;19.63;42.24;94421.59;1048675;28;1611;-56
2021/11/01 02:43:28;;;;;;;;;;;;;;;19.64;42.38;94420.53;1045590;28;1156;-56
2021/11/01 02:44:22;;;;;;;;;;;;;;;19.62;42.36;94417.44;1042537;28;1762;-57
2021/11/01 02:45:13;;;;;;;;;;;;;;;19.61;42.52;94421.13;1045998;28;1618;-55
2021/11/01 02:45:43;;;;;;;;;;;;;;;19.61;42.44;94416.66;1049257;28;1117;-56
2021/11/01 02:46:16;;;;;;;;;;;;;;;19.61;42.49;94418.50;1047540;28;1886;-58
2021/11/01 02:47:06;;;;;;;;;;;;;;;19.61;42.29;94421.91;1045760;28;1225;-57
2021/11/01 02:47:56;;;;;;;;;;;;;;;19.59;42.43;94412.75;1046776;28;1480;-56
2021/11/01 02:48:28;;;;;;;;;;;;;;;19.59;42.44;94412.75;1049058;28;1264;-57
2021/11/01 02:49:09;;;;;;;;;;;;;;;19.58;42.42;94411.97;1048526;28;1412;-53
2021/11/01 02:49:47;;;;;;;;;;;;;;;19.59;42.58;94410.91;1043929;28;1933;-58
2021/11/01 02:50:38;;;;;;;;;;;;;;;19.60;42.46;94409.06;1038206;28;1708;-56
2021/11/01 02:51:28;;;;;;;;;;;;;;;19.61;42.44;94410.63;1048609;28;1091;-57
2021/11/01 02:52:19;;;;;;;;;;;;;;;19.59;42.44;94410.13;1048291;28;1038;-54
2021/11/01 02:53:09;;;;;;;;;;;;;;;19.58;42.54;94403.34;1048319;28;1232;-58
2021/11/01 02:53:39;;;;;;;;;;;;;;;19.60;42.51;94411.69;1048554;28;1283;-57
2021/11/01 02:54:30;;;;;;;;;;;;;;;19.57;42.58;94399.94;1048024;28;1113;-56
2021/11/01 02:55:20;;;;;;;;;;;;;;;19.59;42.36;94402.25;1046375;28;1135;-58
2021/11/01 02:56:11;;;;;;;;;;;;;;;19.56;42.54;94403.63;1045683;28;1065;-57
2021/11/01 02:56:43;;;;;;;;;;;;;;;19.57;42.57;94409.66;1048524;28;1532;-55
2021/11/01 02:57:33;;;;;;;;;;;;;;;19.58;42.50;94405.97;1042651;28;1193;-57
2021/11/01 02:58:23;;;;;;;;;;;;;;;19.57;42.59;94401.78;1046379;28;1238;-56
2021/11/01 02:59:00;;;;;;;;;;;;;;;19.57;42.33;94405.19;1048726;28;1184;-57
2021/11/01 02:59:30;;;;;;;;;;;;;;;19.58;42.59;94404.09;1048668;28;1178;-57
2021/11/01 03:00:01;;;;;;;;;;;;;;;19.57;42.48;94405.19;1048959;28;1060;-57
2021/11/01 03:00:32;;;;;;;;;;;;;;;19.57;42.42;94407.03;1047865;28;1891;-55
2021/11/01 03:01:02;;;;;;;;;;;;;;;19.57;42.42;94410.44;1047009;28;1011;-57
2021/11/01 03:01:33;;;;;;;;;;;;;;;19.58;42.42;94405.97;1048574;28;1158;-57
2021/11/01 03:02:03;;;;;;;;;;;;;;;19.58;42.33;94405.97;1048421;28;1288;-56
2021/11/01 03:02:37;;;;;;;;;;;;;;;19.58;42.51;94405.97;1048592;28;1169;-55
2021/11/01 03:03:07;;;;;;;;;;;;;;;19.57;42.45;94404.41;1048651;28;1984;-54
2021/11/01 03:03:38;;;;;;;;;;;;;;;19.56;42.42;94401.00;1049163;28;1062;-56
2021/11/01 03:04:08;;;;;;;;;;;;;;;19.57;42.47;94409.66;1046002;28;1397;-57
2021/11/01 03:04:39;;;;;;;;;;;;;;;19.55;42.48;94404.72;1048597;28;1165;-57
2021/11/01 03:05:10;;;;;;;;;;;;;;;19.59;42.39;94405.66;1049204;28;1103;-55
2021/11/01 03:05:41;;;;;;;;;;;;;;;19.58;42.40;94405.97;1045642;28;1926;-56
2021/11/01 03:06:12;;;;;;;;;;;;;;;19.57;42.31;94405.19;1048414;28;1095;-54
2021/11/01 03:06:42;;;;;;;;;;;;;;;19.57;42.39;94399.16;1048801;28;1080;-56
2021/11/01 03:07:13;;;;;;;;;;;;;;;19.56;42.41;94402.88;1048676;28;1189;-56
2021/11/01 03:07:44;;;;;;;;;;;;;;;19.55;42.45;94396.03;1048814;28;1138;-56
2021/11/01 03:08:14;;;;;;;;;;;;;;;19.55;42.54;94396.03;1045399;28;1896;-55
2021/11/01 03:08:45;;;;;;;;;;;;;;;19.54;42.50;94399.75;1044835;28;1064;-57